Snohomish County (Paine Field) Airport
KPAE : now visible

Airfield :











YOU CAN JOIN US ON...

 
LOGIN :

Register | Disclaimer

   EN    FR    IT 

 









Legend :    VFR   Marginal VFR   IFR   Intensive IFR   Very Intensive IFR
Visi :
Ceiling :
>= 8 km
>= 3000ft
5 to 8 km
1000 to 3000 ft
1500m to 5 km
500 to 1000 ft
800 to 1500m
200 to 500 ft
< 800m
< 200 ft
Symbols :   Thunderstorms  Fog  Heavy snow  Heavy precipitations  Wind > 20 kt






- Airport Elevation : 606 ft
- IATA code : PAE


KPAE - Snohomish County (Paine Field)

CURRENT METAR :
  • 172153Z 16006KT 10SM BKN048 OVC055 04/M01 A3015 RMK AO2 SLP216 T00391011

EXPIRED METARs :
  • 172053Z 16006KT 10SM FEW048 BKN060 OVC080 04/M02 A3016 RMK AO2 SLP217 T00391017 51007
  • 171953Z 14004KT 10SM SCT085 SCT120 03/M02 A3015 RMK AO2 SLP216 T00331017
  • 171853Z 11005KT 10SM SCT039 BKN095 02/M02 A3016 RMK AO2 SLP219 T00221017

TAF KPAE
Valid from the 17 at 18:00 until the 18 at 18:00 UTC


171721Z 1718/1818 15004KT P6SM BKN110 BKN200
FM172100 15008KT P6SM BKN050 OVC100
FM180400 14010KT P6SM -RA BKN020 OVC050



MET'MAP, your aeronautical weather chart ! - Copyright ORBIFLY December 2007 - Disclaimer

ORBIFLY MET'MAP TEAM :

Programming & Development : Alexandra Zaïnal
Concept & original design : Baudouin d'Aumeries
Assistance for programming : Marc-Olivier Méhu
Technical & hardware support : Manuel Goepfert

Contact : metmap@orbifly.com




SOURCES & CREDITS :

   NOAA       Earth
Advisory